Terminal Aerodrome Forecast
Issued by NWS

Home | Current Version | Previous Version | Text Only | Print | Product List | Glossary On
Versions: 1 2 3 4 5 6 7 8 9 10 11 12 13 14 15 16 17 18 19 20 21 22 23 24 25 26 27 28 29 30 31 32 33 34 35 36 37 38 39 40
389
FTUS44 KHGX 081129
TAFLBX
TAF
KLBX 081129Z 0812/0912 34005KT P6SM SKC
     FM081400 34011KT P6SM BKN250
     FM081500 34017G27KT P6SM SCT250
     FM090100 34010KT P6SM BKN250
     FM090600 VRB03KT P6SM SKC=

USA.gov is the U.S. government's official web portal to all federal, state and local government web resources and services.